Time;durP1;ratioP1;P1;durP2;ratioP2;P2;SDS_P1;SDS_P2;PMS_P1;PMS_P2;Temp;Humidity;BMP_temperature;BMP_pressure;BME280_temperature;BME280_humidity;BME280_pressure;Samples;Min_cycle;Max_cycle;Signal;HPM_P1;HPM_P2
2021/09/20 00:00:58;;;;;;;6.20;5.60;;;;;;;;;;10321010;28;20072;-61
2021/09/20 00:05:57;;;;;;;8.77;7.88;;;;;;;;;;10321273;28;20419;-62
2021/09/20 00:10:56;;;;;;;11.27;8.45;;;;;;;;;;10321124;28;20418;-62
2021/09/20 00:15:55;;;;;;;8.23;5.97;;;;;;;;;;10321067;28;20077;-61
2021/09/20 00:20:53;;;;;;;7.45;6.07;;;;;;;;;;10320820;28;20595;-62
2021/09/20 00:25:51;;;;;;;6.93;5.40;;;;;;;;;;10320715;28;20517;-63
2021/09/20 00:30:51;;;;;;;8.10;5.28;;;;;;;;;;10319970;28;20041;-62
2021/09/20 00:35:49;;;;;;;6.53;4.38;;;;;;;;;;10320871;28;20044;-63
2021/09/20 00:40:48;;;;;;;6.40;4.53;;;;;;;;;;10320343;28;20083;-64
2021/09/20 00:45:46;;;;;;;7.53;3.72;;;;;;;;;;10320352;28;20048;-63
2021/09/20 00:50:46;;;;;;;6.00;4.90;;;;;;;;;;10319125;28;20551;-62
2021/09/20 00:55:44;;;;;;;6.00;4.60;;;;;;;;;;10319379;28;20044;-63
2021/09/20 01:00:42;;;;;;;10.90;4.55;;;;;;;;;;10319051;28;20076;-61
2021/09/20 01:05:41;;;;;;;8.07;5.93;;;;;;;;;;10319283;28;20607;-62
2021/09/20 01:10:41;;;;;;;9.98;6.53;;;;;;;;;;10319056;28;20052;-62
2021/09/20 01:15:39;;;;;;;8.10;7.20;;;;;;;;;;10318781;28;20054;-62
2021/09/20 01:20:37;;;;;;;9.50;8.10;;;;;;;;;;10317797;28;20425;-62
2021/09/20 01:25:37;;;;;;;9.90;6.78;;;;;;;;;;10318256;28;20041;-62
2021/09/20 01:30:36;;;;;;;6.40;5.80;;;;;;;;;;10318373;28;20048;-62
2021/09/20 01:35:34;;;;;;;9.88;7.28;;;;;;;;;;10318200;28;20052;-62
2021/09/20 01:40:33;;;;;;;10.98;7.25;;;;;;;;;;10317511;28;20072;-63
2021/09/20 01:45:33;;;;;;;9.60;8.20;;;;;;;;;;10317745;28;20084;-62
2021/09/20 01:50:31;;;;;;;9.73;8.65;;;;;;;;;;10316910;28;20108;-62
2021/09/20 01:55:30;;;;;;;17.27;10.93;;;;;;;;;;10316668;28;20048;-63
2021/09/20 02:00:29;;;;;;;14.10;10.75;;;;;;;;;;10317334;28;20052;-63
2021/09/20 02:05:28;;;;;;;19.20;16.60;;;;;;;;;;10316366;28;20080;-61
2021/09/20 02:10:27;;;;;;;21.23;17.30;;;;;;;;;;10316479;28;20073;-61
2021/09/20 02:15:25;;;;;;;21.35;17.90;;;;;;;;;;10316955;28;20043;-61
2021/09/20 02:20:24;;;;;;;15.13;13.07;;;;;;;;;;10316882;28;20044;-61
2021/09/20 02:25:23;;;;;;;18.33;13.73;;;;;;;;;;10316531;28;20071;-62
2021/09/20 02:30:22;;;;;;;16.00;12.88;;;;;;;;;;10316474;28;20076;-63
2021/09/20 02:35:20;;;;;;;19.35;14.98;;;;;;;;;;10316453;28;20055;-60
2021/09/20 02:40:18;;;;;;;20.65;14.85;;;;;;;;;;10316210;28;20048;-63
2021/09/20 02:45:18;;;;;;;13.25;11.85;;;;;;;;;;10316503;28;20056;-65
2021/09/20 02:50:16;;;;;;;12.15;10.02;;;;;;;;;;10315823;28;20462;-63
2021/09/20 02:55:15;;;;;;;18.83;11.65;;;;;;;;;;10316245;28;20430;-61
2021/09/20 03:00:14;;;;;;;14.65;11.25;;;;;;;;;;10316262;28;20044;-61
2021/09/20 03:05:14;;;;;;;15.73;12.15;;;;;;;;;;10316082;28;20091;-62
2021/09/20 03:10:12;;;;;;;18.52;12.50;;;;;;;;;;10315622;28;20040;-62
2021/09/20 03:15:11;;;;;;;17.90;13.02;;;;;;;;;;10316019;28;20076;-62
2021/09/20 03:20:10;;;;;;;16.40;11.98;;;;;;;;;;10320946;28;20087;-62
2021/09/20 03:25:11;;;;;;;18.95;13.70;;;;;;;;;;10322318;28;20076;-62
2021/09/20 03:30:10;;;;;;;17.40;12.90;;;;;;;;;;10322462;28;20060;-61
2021/09/20 03:35:11;;;;;;;17.08;14.43;;;;;;;;;;10323117;28;20045;-61
2021/09/20 03:40:12;;;;;;;15.02;13.48;;;;;;;;;;10322424;28;20040;-62
2021/09/20 03:45:11;;;;;;;20.52;16.10;;;;;;;;;;10322264;28;20091;-61
2021/09/20 03:50:11;;;;;;;18.75;15.65;;;;;;;;;;10321825;28;20060;-62
2021/09/20 03:55:10;;;;;;;31.88;25.08;;;;;;;;;;10321186;28;20048;-62
2021/09/20 04:00:11;;;;;;;26.13;18.50;;;;;;;;;;10322232;28;20225;-61
2021/09/20 04:05:11;;;;;;;24.98;16.42;;;;;;;;;;10322070;28;20072;-62
2021/09/20 04:10:10;;;;;;;41.25;31.13;;;;;;;;;;10319534;28;20072;-61
2021/09/20 04:15:11;;;;;;;52.95;31.90;;;;;;;;;;10320591;28;20075;-63
2021/09/20 04:20:11;;;;;;;39.17;27.85;;;;;;;;;;10321121;28;20041;-63
2021/09/20 04:25:10;;;;;;;24.63;15.82;;;;;;;;;;10320111;28;20079;-62
2021/09/20 04:30:13;;;;;;;32.90;23.65;;;;;;;;;;10318496;28;20059;-63
2021/09/20 04:35:12;;;;;;;22.00;13.73;;;;;;;;;;10320660;28;20052;-63
2021/09/20 04:40:11;;;;;;;22.35;13.23;;;;;;;;;;10320301;28;20041;-62
2021/09/20 04:45:11;;;;;;;18.55;14.25;;;;;;;;;;10320039;28;20087;-63
2021/09/20 04:50:10;;;;;;;22.80;16.80;;;;;;;;;;10319575;28;20049;-63
2021/09/20 04:55:09;;;;;;;24.67;14.25;;;;;;;;;;10317046;28;20520;-63
2021/09/20 05:00:08;;;;;;;16.70;11.05;;;;;;;;;;10311900;28;20072;-62
2021/09/20 05:05:09;;;;;;;11.07;9.65;;;;;;;;;;10313080;28;20088;-63
2021/09/20 05:10:09;;;;;;;16.63;10.88;;;;;;;;;;10313102;28;20091;-63
2021/09/20 05:15:08;;;;;;;15.20;12.65;;;;;;;;;;10317783;28;20048;-63
2021/09/20 05:20:06;;;;;;;14.90;12.02;;;;;;;;;;10317551;28;20079;-63
2021/09/20 05:25:08;;;;;;;14.48;11.20;;;;;;;;;;10318521;28;20505;-61
2021/09/20 05:30:08;;;;;;;13.38;10.93;;;;;;;;;;10318022;28;20044;-62
2021/09/20 05:35:07;;;;;;;13.95;11.23;;;;;;;;;;10317711;28;20045;-62
2021/09/20 05:40:08;;;;;;;23.83;18.83;;;;;;;;;;10317949;28;20094;-62
2021/09/20 05:45:07;;;;;;;24.20;14.60;;;;;;;;;;10317293;28;20049;-62
2021/09/20 05:50:06;;;;;;;20.70;12.32;;;;;;;;;;10316992;28;20194;-61
2021/09/20 05:55:05;;;;;;;22.27;12.98;;;;;;;;;;10317238;28;20418;-62
2021/09/20 06:00:05;;;;;;;19.75;14.52;;;;;;;;;;10317104;28;20405;-62
2021/09/20 06:05:08;;;;;;;28.00;20.58;;;;;;;;;;10324203;28;20080;-62
2021/09/20 06:10:07;;;;;;;20.92;16.83;;;;;;;;;;10317024;28;20052;-63
2021/09/20 18:47:22;;;;;;;11.23;6.85;;;;;;;;;;10308392;28;1300395;-57
2021/09/20 18:52:21;;;;;;;11.57;7.45;;;;;;;;;;10354409;28;20078;-57
2021/09/20 18:57:19;;;;;;;9.80;7.47;;;;;;;;;;10355562;28;20080;-57
2021/09/20 19:02:17;;;;;;;9.90;6.47;;;;;;;;;;10336659;28;20090;-56
2021/09/20 19:07:17;;;;;;;9.57;7.05;;;;;;;;;;10328913;28;20075;-57
2021/09/20 19:12:16;;;;;;;11.00;7.15;;;;;;;;;;10315366;28;20044;-56
2021/09/20 19:17:15;;;;;;;11.82;7.57;;;;;;;;;;10314951;28;20040;-56
2021/09/20 19:22:13;;;;;;;10.82;7.85;;;;;;;;;;10314517;28;20087;-57
2021/09/20 19:27:13;;;;;;;8.68;7.85;;;;;;;;;;10334109;28;20044;-56
2021/09/20 19:32:12;;;;;;;12.82;9.23;;;;;;;;;;10353603;28;20055;-55
2021/09/20 19:37:10;;;;;;;10.63;9.07;;;;;;;;;;10350989;28;20516;-56
2021/09/20 19:42:10;;;;;;;11.43;9.80;;;;;;;;;;10353189;28;20075;-56
2021/09/20 19:47:10;;;;;;;12.13;10.88;;;;;;;;;;10324498;28;20492;-55
2021/09/20 19:52:08;;;;;;;12.25;10.45;;;;;;;;;;10313256;28;20500;-56
2021/09/20 19:57:06;;;;;;;17.60;11.38;;;;;;;;;;10316561;28;20064;-54
2021/09/20 20:02:04;;;;;;;16.65;13.02;;;;;;;;;;10320271;28;20091;-53
2021/09/20 20:07:04;;;;;;;13.13;11.82;;;;;;;;;;10319443;28;20076;-54
2021/09/20 20:12:03;;;;;;;16.17;14.23;;;;;;;;;;10321206;28;20500;-56
2021/09/20 20:17:01;;;;;;;17.30;15.43;;;;;;;;;;10321239;28;20080;-55
2021/09/20 20:22:00;;;;;;;16.63;14.27;;;;;;;;;;10319300;28;20079;-55
2021/09/20 20:26:59;;;;;;;18.02;14.75;;;;;;;;;;10320665;28;20033;-56
2021/09/20 20:31:58;;;;;;;16.95;15.15;;;;;;;;;;10319385;28;20055;-56
2021/09/20 20:36:56;;;;;;;16.15;14.45;;;;;;;;;;10320330;28;20075;-56
2021/09/20 20:41:54;;;;;;;16.02;14.27;;;;;;;;;;10319861;28;20465;-55
2021/09/20 20:46:54;;;;;;;16.05;14.38;;;;;;;;;;10318659;28;20079;-55
2021/09/20 20:51:53;;;;;;;18.90;14.95;;;;;;;;;;10319078;28;20496;-54
2021/09/20 20:56:54;;;;;;;18.80;16.85;;;;;;;;;;10316109;28;20107;-54
2021/09/20 21:01:55;;;;;;;20.33;16.77;;;;;;;;;;10318947;28;20075;-54
2021/09/20 21:06:54;;;;;;;19.20;16.17;;;;;;;;;;10318337;28;20047;-55
2021/09/20 21:11:52;;;;;;;18.98;16.75;;;;;;;;;;10318760;28;20086;-55
2021/09/20 21:16:50;;;;;;;19.50;17.35;;;;;;;;;;10319768;28;20040;-55
2021/09/20 21:21:50;;;;;;;18.10;16.02;;;;;;;;;;10317885;28;20076;-57
2021/09/20 21:26:48;;;;;;;17.50;14.98;;;;;;;;;;10318409;28;20044;-54
2021/09/20 21:31:46;;;;;;;18.30;14.95;;;;;;;;;;10317626;28;20044;-55
2021/09/20 21:36:45;;;;;;;19.50;14.73;;;;;;;;;;10317487;28;20436;-57
2021/09/20 21:41:46;;;;;;;15.65;13.00;;;;;;;;;;10317441;28;20526;-54
2021/09/20 21:46:45;;;;;;;14.38;11.45;;;;;;;;;;10317254;28;20072;-55
2021/09/20 21:51:43;;;;;;;12.55;11.25;;;;;;;;;;10315646;28;20434;-55
2021/09/20 21:56:42;;;;;;;11.90;10.65;;;;;;;;;;10317015;28;20060;-55
2021/09/20 22:01:41;;;;;;;11.55;10.35;;;;;;;;;;10316527;28;20444;-55
2021/09/20 22:06:55;;;;;;;12.15;10.65;;;;;;;;;;10314961;28;20080;-55
2021/09/20 22:11:54;;;;;;;12.00;9.50;;;;;;;;;;10317246;28;20080;-55
2021/09/20 22:16:54;;;;;;;8.82;7.60;;;;;;;;;;10317116;28;20063;-55
2021/09/20 22:21:54;;;;;;;7.43;6.72;;;;;;;;;;10315563;28;20076;-55
2021/09/20 22:26:52;;;;;;;8.80;7.05;;;;;;;;;;10315775;28;20070;-56
2021/09/20 22:31:51;;;;;;;8.23;7.38;;;;;;;;;;10315909;28;20037;-55
2021/09/20 22:36:50;;;;;;;8.63;7.72;;;;;;;;;;10316155;28;20079;-56
2021/09/20 22:41:49;;;;;;;8.55;7.75;;;;;;;;;;10316356;28;20083;-55
2021/09/20 22:46:47;;;;;;;8.82;7.93;;;;;;;;;;10314974;28;20082;-56
2021/09/20 22:51:45;;;;;;;9.73;8.82;;;;;;;;;;10314214;28;20079;-56
2021/09/20 22:56:45;;;;;;;9.43;8.52;;;;;;;;;;10315149;28;20468;-54
2021/09/20 23:01:43;;;;;;;8.38;7.57;;;;;;;;;;10313997;28;20076;-56
2021/09/20 23:06:42;;;;;;;7.00;6.30;;;;;;;;;;10315433;28;20083;-54
2021/09/20 23:11:40;;;;;;;7.15;6.55;;;;;;;;;;10316151;28;20044;-54
2021/09/20 23:16:40;;;;;;;5.82;5.22;;;;;;;;;;10315972;28;20541;-55
2021/09/20 23:21:38;;;;;;;7.88;5.28;;;;;;;;;;10314907;28;20083;-56
2021/09/20 23:26:36;;;;;;;4.93;4.43;;;;;;;;;;10315062;28;20047;-56
2021/09/20 23:31:35;;;;;;;5.05;4.15;;;;;;;;;;10317787;28;20044;-55
2021/09/20 23:36:35;;;;;;;4.68;4.22;;;;;;;;;;10323478;28;20059;-55
2021/09/20 23:41:33;;;;;;;3.92;3.58;;;;;;;;;;10322573;28;20079;-55
2021/09/20 23:46:31;;;;;;;3.60;3.30;;;;;;;;;;10322699;28;20056;-53
2021/09/20 23:51:30;;;;;;;3.92;3.42;;;;;;;;;;10323113;28;20048;-56
2021/09/20 23:56:30;;;;;;;3.53;2.90;;;;;;;;;;10322359;28;20435;-55
